sensor_id;sensor_type;location;lat;lon;timestamp;temperature;humidity
51175;DHT22;37240;50.104;20.010;2023-09-30T00:02:55;18.90;97.60
51175;DHT22;37240;50.104;20.010;2023-09-30T00:07:55;18.90;97.60
51175;DHT22;37240;50.104;20.010;2023-09-30T00:12:56;18.80;97.50
51175;DHT22;37240;50.104;20.010;2023-09-30T00:17:57;18.90;97.80
51175;DHT22;37240;50.104;20.010;2023-09-30T00:22:58;18.90;97.80
51175;DHT22;37240;50.104;20.010;2023-09-30T00:27:58;18.80;98.10
51175;DHT22;37240;50.104;20.010;2023-09-30T00:32:59;18.80;98.30
51175;DHT22;37240;50.104;20.010;2023-09-30T00:38:00;18.80;97.90
51175;DHT22;37240;50.104;20.010;2023-09-30T00:43:00;18.60;97.80
51175;DHT22;37240;50.104;20.010;2023-09-30T00:48:01;18.60;98.00
51175;DHT22;37240;50.104;20.010;2023-09-30T00:53:02;18.50;98.00
51175;DHT22;37240;50.104;20.010;2023-09-30T00:58:03;18.40;98.00
51175;DHT22;37240;50.104;20.010;2023-09-30T01:03:04;18.50;98.30
51175;DHT22;37240;50.104;20.010;2023-09-30T01:08:05;18.50;98.20
51175;DHT22;37240;50.104;20.010;2023-09-30T01:13:05;18.40;98.00
51175;DHT22;37240;50.104;20.010;2023-09-30T01:18:06;18.40;98.10
51175;DHT22;37240;50.104;20.010;2023-09-30T01:23:07;18.40;98.10
51175;DHT22;37240;50.104;20.010;2023-09-30T01:28:08;18.40;98.40
51175;DHT22;37240;50.104;20.010;2023-09-30T01:33:08;18.40;98.00
51175;DHT22;37240;50.104;20.010;2023-09-30T01:38:09;18.30;97.80
51175;DHT22;37240;50.104;20.010;2023-09-30T01:43:10;18.30;98.10
51175;DHT22;37240;50.104;20.010;2023-09-30T01:48:11;18.30;98.10
51175;DHT22;37240;50.104;20.010;2023-09-30T01:53:11;18.30;98.20
51175;DHT22;37240;50.104;20.010;2023-09-30T01:58:12;18.30;98.10
51175;DHT22;37240;50.104;20.010;2023-09-30T02:03:12;18.30;97.90
51175;DHT22;37240;50.104;20.010;2023-09-30T02:08:13;18.30;97.90
51175;DHT22;37240;50.104;20.010;2023-09-30T02:13:13;18.30;97.60
51175;DHT22;37240;50.104;20.010;2023-09-30T02:18:14;18.10;97.50
51175;DHT22;37240;50.104;20.010;2023-09-30T02:23:14;18.20;97.70
51175;DHT22;37240;50.104;20.010;2023-09-30T02:28:15;18.30;97.40
51175;DHT22;37240;50.104;20.010;2023-09-30T02:33:15;18.20;97.40
51175;DHT22;37240;50.104;20.010;2023-09-30T02:38:16;18.20;97.30
51175;DHT22;37240;50.104;20.010;2023-09-30T02:43:17;18.20;97.40
51175;DHT22;37240;50.104;20.010;2023-09-30T02:48:17;18.20;97.30
51175;DHT22;37240;50.104;20.010;2023-09-30T02:53:18;18.20;97.20
51175;DHT22;37240;50.104;20.010;2023-09-30T02:58:18;18.30;97.00
51175;DHT22;37240;50.104;20.010;2023-09-30T03:03:19;18.30;96.80
51175;DHT22;37240;50.104;20.010;2023-09-30T03:08:19;18.40;96.50
51175;DHT22;37240;50.104;20.010;2023-09-30T03:13:20;18.40;96.10
51175;DHT22;37240;50.104;20.010;2023-09-30T03:18:20;18.50;95.70
51175;DHT22;37240;50.104;20.010;2023-09-30T03:23:22;18.50;95.50
51175;DHT22;37240;50.104;20.010;2023-09-30T03:28:22;18.50;95.70
51175;DHT22;37240;50.104;20.010;2023-09-30T03:33:23;18.60;95.40
51175;DHT22;37240;50.104;20.010;2023-09-30T03:38:23;18.60;95.50
51175;DHT22;37240;50.104;20.010;2023-09-30T03:43:25;18.60;95.60
51175;DHT22;37240;50.104;20.010;2023-09-30T03:48:25;18.70;95.60
51175;DHT22;37240;50.104;20.010;2023-09-30T03:53:27;18.70;95.60
51175;DHT22;37240;50.104;20.010;2023-09-30T03:58:27;18.70;95.50
51175;DHT22;37240;50.104;20.010;2023-09-30T04:03:28;18.70;95.50
51175;DHT22;37240;50.104;20.010;2023-09-30T04:08:28;18.70;95.60
51175;DHT22;37240;50.104;20.010;2023-09-30T04:13:29;18.70;95.70
51175;DHT22;37240;50.104;20.010;2023-09-30T04:18:29;18.70;95.50
51175;DHT22;37240;50.104;20.010;2023-09-30T04:23:30;18.70;95.60
51175;DHT22;37240;50.104;20.010;2023-09-30T04:28:31;18.70;95.40
51175;DHT22;37240;50.104;20.010;2023-09-30T04:33:31;18.80;95.40
51175;DHT22;37240;50.104;20.010;2023-09-30T04:38:32;18.80;95.30
51175;DHT22;37240;50.104;20.010;2023-09-30T04:43:33;18.80;95.50
51175;DHT22;37240;50.104;20.010;2023-09-30T04:48:33;18.80;95.50
51175;DHT22;37240;50.104;20.010;2023-09-30T04:53:34;18.80;95.60
51175;DHT22;37240;50.104;20.010;2023-09-30T04:58:35;18.80;95.50
51175;DHT22;37240;50.104;20.010;2023-09-30T05:03:35;18.80;95.40
51175;DHT22;37240;50.104;20.010;2023-09-30T05:08:36;18.80;95.30
51175;DHT22;37240;50.104;20.010;2023-09-30T05:13:36;18.80;95.50
51175;DHT22;37240;50.104;20.010;2023-09-30T05:18:37;18.80;95.70
51175;DHT22;37240;50.104;20.010;2023-09-30T05:23:37;18.80;95.50
51175;DHT22;37240;50.104;20.010;2023-09-30T05:28:38;18.80;95.50
51175;DHT22;37240;50.104;20.010;2023-09-30T05:33:38;18.80;95.50
51175;DHT22;37240;50.104;20.010;2023-09-30T05:38:39;18.80;95.60
51175;DHT22;37240;50.104;20.010;2023-09-30T05:43:40;18.80;96.00
51175;DHT22;37240;50.104;20.010;2023-09-30T05:48:41;18.80;96.00
51175;DHT22;37240;50.104;20.010;2023-09-30T05:53:42;18.80;96.40
51175;DHT22;37240;50.104;20.010;2023-09-30T05:58:42;18.80;96.60
51175;DHT22;37240;50.104;20.010;2023-09-30T06:03:43;18.80;96.70
51175;DHT22;37240;50.104;20.010;2023-09-30T06:08:43;18.90;96.80
51175;DHT22;37240;50.104;20.010;2023-09-30T06:13:44;18.90;97.00
51175;DHT22;37240;50.104;20.010;2023-09-30T06:18:45;19.00;97.20
51175;DHT22;37240;50.104;20.010;2023-09-30T06:23:46;19.00;97.30
51175;DHT22;37240;50.104;20.010;2023-09-30T06:28:47;19.10;97.20
51175;DHT22;37240;50.104;20.010;2023-09-30T06:33:47;19.20;97.40
51175;DHT22;37240;50.104;20.010;2023-09-30T06:38:48;19.20;97.60
51175;DHT22;37240;50.104;20.010;2023-09-30T06:43:49;19.30;97.90
51175;DHT22;37240;50.104;20.010;2023-09-30T06:48:49;19.30;98.10
51175;DHT22;37240;50.104;20.010;2023-09-30T06:53:50;19.30;98.20
51175;DHT22;37240;50.104;20.010;2023-09-30T06:58:50;19.40;98.20
51175;DHT22;37240;50.104;20.010;2023-09-30T07:03:51;19.50;98.40
51175;DHT22;37240;50.104;20.010;2023-09-30T07:08:51;19.50;98.40
51175;DHT22;37240;50.104;20.010;2023-09-30T07:13:52;19.60;98.70
51175;DHT22;37240;50.104;20.010;2023-09-30T07:18:53;19.70;98.90
51175;DHT22;37240;50.104;20.010;2023-09-30T07:23:53;19.70;99.30
51175;DHT22;37240;50.104;20.010;2023-09-30T07:28:54;19.70;99.30
51175;DHT22;37240;50.104;20.010;2023-09-30T07:33:54;19.80;99.60
51175;DHT22;37240;50.104;20.010;2023-09-30T07:38:55;19.80;99.50
51175;DHT22;37240;50.104;20.010;2023-09-30T07:43:55;19.80;99.80
51175;DHT22;37240;50.104;20.010;2023-09-30T07:48:56;19.80;99.90
51175;DHT22;37240;50.104;20.010;2023-09-30T07:53:56;19.80;99.90
51175;DHT22;37240;50.104;20.010;2023-09-30T07:58:57;19.90;99.90
51175;DHT22;37240;50.104;20.010;2023-09-30T08:03:58;19.90;99.90
51175;DHT22;37240;50.104;20.010;2023-09-30T08:08:58;20.00;99.90
51175;DHT22;37240;50.104;20.010;2023-09-30T08:13:59;20.00;99.90
51175;DHT22;37240;50.104;20.010;2023-09-30T08:18:59;20.10;99.90
51175;DHT22;37240;50.104;20.010;2023-09-30T08:24:01;20.10;99.90
51175;DHT22;37240;50.104;20.010;2023-09-30T08:29:02;20.20;99.90
51175;DHT22;37240;50.104;20.010;2023-09-30T08:34:02;20.30;99.90
51175;DHT22;37240;50.104;20.010;2023-09-30T08:39:03;20.40;99.90
51175;DHT22;37240;50.104;20.010;2023-09-30T08:44:04;20.40;99.90
51175;DHT22;37240;50.104;20.010;2023-09-30T08:49:05;20.40;99.90
51175;DHT22;37240;50.104;20.010;2023-09-30T08:54:05;20.50;99.90
51175;DHT22;37240;50.104;20.010;2023-09-30T08:59:06;20.50;99.90
51175;DHT22;37240;50.104;20.010;2023-09-30T09:04:07;20.50;99.90
51175;DHT22;37240;50.104;20.010;2023-09-30T09:09:17;20.50;99.90
51175;DHT22;37240;50.104;20.010;2023-09-30T09:14:18;20.50;99.90
51175;DHT22;37240;50.104;20.010;2023-09-30T09:19:19;20.60;99.90
51175;DHT22;37240;50.104;20.010;2023-09-30T09:24:29;20.60;99.90
51175;DHT22;37240;50.104;20.010;2023-09-30T09:29:30;20.60;99.90
51175;DHT22;37240;50.104;20.010;2023-09-30T09:34:30;20.60;99.90
51175;DHT22;37240;50.104;20.010;2023-09-30T09:39:31;20.60;99.90
51175;DHT22;37240;50.104;20.010;2023-09-30T09:44:33;20.60;99.90
51175;DHT22;37240;50.104;20.010;2023-09-30T09:49:37;20.70;99.90
51175;DHT22;37240;50.104;20.010;2023-09-30T09:54:39;20.70;99.90
51175;DHT22;37240;50.104;20.010;2023-09-30T09:59:42;20.80;99.90
51175;DHT22;37240;50.104;20.010;2023-09-30T10:04:47;20.80;99.90
51175;DHT22;37240;50.104;20.010;2023-09-30T10:09:51;20.80;99.90
51175;DHT22;37240;50.104;20.010;2023-09-30T10:14:52;20.80;99.90
51175;DHT22;37240;50.104;20.010;2023-09-30T10:20:04;20.80;99.90
51175;DHT22;37240;50.104;20.010;2023-09-30T10:25:33;20.80;99.90
51175;DHT22;37240;50.104;20.010;2023-09-30T10:30:34;20.80;99.90
51175;DHT22;37240;50.104;20.010;2023-09-30T10:40:35;20.60;99.90
51175;DHT22;37240;50.104;20.010;2023-09-30T10:45:42;20.50;99.90
51175;DHT22;37240;50.104;20.010;2023-09-30T10:50:53;20.50;99.90
51175;DHT22;37240;50.104;20.010;2023-09-30T10:55:58;20.50;99.90
51175;DHT22;37240;50.104;20.010;2023-09-30T11:00:59;20.40;99.90
51175;DHT22;37240;50.104;20.010;2023-09-30T11:06:00;20.20;99.90
51175;DHT22;37240;50.104;20.010;2023-09-30T11:11:00;20.10;99.90
51175;DHT22;37240;50.104;20.010;2023-09-30T11:16:02;20.10;99.90
51175;DHT22;37240;50.104;20.010;2023-09-30T11:21:11;20.10;99.90
51175;DHT22;37240;50.104;20.010;2023-09-30T11:26:11;20.10;99.90
51175;DHT22;37240;50.104;20.010;2023-09-30T11:31:12;20.00;99.90
51175;DHT22;37240;50.104;20.010;2023-09-30T11:36:13;20.10;99.90
51175;DHT22;37240;50.104;20.010;2023-09-30T11:41:13;20.00;99.90
51175;DHT22;37240;50.104;20.010;2023-09-30T11:46:14;20.00;99.90
51175;DHT22;37240;50.104;20.010;2023-09-30T11:51:15;20.00;99.90
51175;DHT22;37240;50.104;20.010;2023-09-30T11:56:15;20.00;99.90
51175;DHT22;37240;50.104;20.010;2023-09-30T12:01:16;20.10;99.90
51175;DHT22;37240;50.104;20.010;2023-09-30T12:06:16;20.10;99.90
51175;DHT22;37240;50.104;20.010;2023-09-30T12:11:18;20.10;99.90
51175;DHT22;37240;50.104;20.010;2023-09-30T12:16:19;20.20;99.90
51175;DHT22;37240;50.104;20.010;2023-09-30T12:21:19;20.20;99.90
51175;DHT22;37240;50.104;20.010;2023-09-30T12:26:20;20.20;99.90
51175;DHT22;37240;50.104;20.010;2023-09-30T12:31:20;20.30;99.90
51175;DHT22;37240;50.104;20.010;2023-09-30T12:36:22;20.30;99.90
51175;DHT22;37240;50.104;20.010;2023-09-30T12:41:22;20.30;99.90
51175;DHT22;37240;50.104;20.010;2023-09-30T12:46:23;20.20;99.90
51175;DHT22;37240;50.104;20.010;2023-09-30T12:51:23;20.40;99.90
51175;DHT22;37240;50.104;20.010;2023-09-30T12:56:24;20.50;99.90
51175;DHT22;37240;50.104;20.010;2023-09-30T13:01:25;20.60;99.90
51175;DHT22;37240;50.104;20.010;2023-09-30T13:06:25;20.60;99.90
51175;DHT22;37240;50.104;20.010;2023-09-30T13:11:26;20.70;99.90
51175;DHT22;37240;50.104;20.010;2023-09-30T13:16:27;20.80;99.90
51175;DHT22;37240;50.104;20.010;2023-09-30T13:21:27;20.80;99.90
51175;DHT22;37240;50.104;20.010;2023-09-30T13:26:28;20.90;99.90
51175;DHT22;37240;50.104;20.010;2023-09-30T13:31:28;20.90;99.90
51175;DHT22;37240;50.104;20.010;2023-09-30T13:36:29;20.90;99.90
51175;DHT22;37240;50.104;20.010;2023-09-30T13:41:29;20.90;99.90
51175;DHT22;37240;50.104;20.010;2023-09-30T13:46:30;20.90;99.90
51175;DHT22;37240;50.104;20.010;2023-09-30T13:51:30;20.80;99.90
51175;DHT22;37240;50.104;20.010;2023-09-30T13:56:31;20.80;99.90
51175;DHT22;37240;50.104;20.010;2023-09-30T14:01:31;20.80;99.90
51175;DHT22;37240;50.104;20.010;2023-09-30T14:06:32;20.80;99.90
51175;DHT22;37240;50.104;20.010;2023-09-30T14:11:33;20.80;99.90
51175;DHT22;37240;50.104;20.010;2023-09-30T14:16:33;20.60;99.90
51175;DHT22;37240;50.104;20.010;2023-09-30T14:21:34;20.60;99.90
51175;DHT22;37240;50.104;20.010;2023-09-30T14:26:34;20.50;99.90
51175;DHT22;37240;50.104;20.010;2023-09-30T14:31:35;20.40;99.90
51175;DHT22;37240;50.104;20.010;2023-09-30T14:36:35;20.30;99.90
51175;DHT22;37240;50.104;20.010;2023-09-30T14:41:37;20.30;99.90
51175;DHT22;37240;50.104;20.010;2023-09-30T14:46:40;20.20;99.90
51175;DHT22;37240;50.104;20.010;2023-09-30T14:51:41;20.30;99.90
51175;DHT22;37240;50.104;20.010;2023-09-30T14:56:41;20.30;99.90
51175;DHT22;37240;50.104;20.010;2023-09-30T15:01:42;20.40;99.90
51175;DHT22;37240;50.104;20.010;2023-09-30T15:06:42;20.40;99.90
51175;DHT22;37240;50.104;20.010;2023-09-30T15:11:43;20.30;99.90
51175;DHT22;37240;50.104;20.010;2023-09-30T15:16:43;20.40;99.90
51175;DHT22;37240;50.104;20.010;2023-09-30T15:21:44;20.40;99.90
51175;DHT22;37240;50.104;20.010;2023-09-30T15:26:44;20.50;99.90
51175;DHT22;37240;50.104;20.010;2023-09-30T15:31:45;20.50;99.90
51175;DHT22;37240;50.104;20.010;2023-09-30T15:36:46;20.40;99.90
51175;DHT22;37240;50.104;20.010;2023-09-30T15:41:47;20.40;99.90
51175;DHT22;37240;50.104;20.010;2023-09-30T15:46:47;20.50;99.90
51175;DHT22;37240;50.104;20.010;2023-09-30T15:51:48;20.40;99.90
51175;DHT22;37240;50.104;20.010;2023-09-30T15:56:49;20.40;99.90
51175;DHT22;37240;50.104;20.010;2023-09-30T16:01:49;20.30;99.90
51175;DHT22;37240;50.104;20.010;2023-09-30T16:06:50;20.30;99.90
51175;DHT22;37240;50.104;20.010;2023-09-30T16:11:50;20.30;99.90
51175;DHT22;37240;50.104;20.010;2023-09-30T16:16:51;20.30;99.90
51175;DHT22;37240;50.104;20.010;2023-09-30T16:21:51;20.20;99.90
51175;DHT22;37240;50.104;20.010;2023-09-30T16:26:52;20.10;99.90
51175;DHT22;37240;50.104;20.010;2023-09-30T16:31:53;20.00;99.90
51175;DHT22;37240;50.104;20.010;2023-09-30T16:36:53;19.90;99.90
51175;DHT22;37240;50.104;20.010;2023-09-30T16:41:54;19.90;99.90
51175;DHT22;37240;50.104;20.010;2023-09-30T16:46:54;19.90;99.90
51175;DHT22;37240;50.104;20.010;2023-09-30T16:51:55;19.90;99.90
51175;DHT22;37240;50.104;20.010;2023-09-30T16:56:55;19.80;99.90
51175;DHT22;37240;50.104;20.010;2023-09-30T17:01:56;19.70;99.90
51175;DHT22;37240;50.104;20.010;2023-09-30T17:06:56;19.60;99.90
51175;DHT22;37240;50.104;20.010;2023-09-30T17:11:57;19.50;99.90
51175;DHT22;37240;50.104;20.010;2023-09-30T17:16:57;19.40;99.90
51175;DHT22;37240;50.104;20.010;2023-09-30T17:21:58;19.40;99.90
51175;DHT22;37240;50.104;20.010;2023-09-30T17:26:58;19.20;99.90
51175;DHT22;37240;50.104;20.010;2023-09-30T17:31:59;19.20;99.90
51175;DHT22;37240;50.104;20.010;2023-09-30T17:36:59;19.00;99.90
51175;DHT22;37240;50.104;20.010;2023-09-30T17:42:00;18.90;99.90
51175;DHT22;37240;50.104;20.010;2023-09-30T17:47:01;18.70;99.90
51175;DHT22;37240;50.104;20.010;2023-09-30T17:52:01;18.70;99.90
51175;DHT22;37240;50.104;20.010;2023-09-30T17:57:02;18.50;99.90
51175;DHT22;37240;50.104;20.010;2023-09-30T18:02:02;18.50;99.90
51175;DHT22;37240;50.104;20.010;2023-09-30T18:07:03;18.40;99.90
51175;DHT22;37240;50.104;20.010;2023-09-30T18:12:03;18.30;99.90
51175;DHT22;37240;50.104;20.010;2023-09-30T18:17:04;18.30;99.90
51175;DHT22;37240;50.104;20.010;2023-09-30T18:22:05;18.20;99.90
51175;DHT22;37240;50.104;20.010;2023-09-30T18:27:05;18.10;99.90
51175;DHT22;37240;50.104;20.010;2023-09-30T18:32:06;18.10;99.90
51175;DHT22;37240;50.104;20.010;2023-09-30T18:37:06;18.00;99.90
51175;DHT22;37240;50.104;20.010;2023-09-30T18:42:07;17.90;99.90
51175;DHT22;37240;50.104;20.010;2023-09-30T18:47:07;17.80;99.90
51175;DHT22;37240;50.104;20.010;2023-09-30T18:52:08;17.80;99.90
51175;DHT22;37240;50.104;20.010;2023-09-30T18:57:09;17.80;99.90
51175;DHT22;37240;50.104;20.010;2023-09-30T19:02:09;17.70;99.90
51175;DHT22;37240;50.104;20.010;2023-09-30T19:07:10;17.60;99.90
51175;DHT22;37240;50.104;20.010;2023-09-30T19:12:10;17.60;99.90
51175;DHT22;37240;50.104;20.010;2023-09-30T19:17:11;17.50;99.90
51175;DHT22;37240;50.104;20.010;2023-09-30T19:22:11;17.50;99.90
51175;DHT22;37240;50.104;20.010;2023-09-30T19:27:12;17.40;99.90
51175;DHT22;37240;50.104;20.010;2023-09-30T19:32:12;17.40;99.90
51175;DHT22;37240;50.104;20.010;2023-09-30T19:37:13;17.40;99.90
51175;DHT22;37240;50.104;20.010;2023-09-30T19:42:13;17.40;99.90
51175;DHT22;37240;50.104;20.010;2023-09-30T19:47:15;17.30;99.90
51175;DHT22;37240;50.104;20.010;2023-09-30T19:52:15;17.20;99.90
51175;DHT22;37240;50.104;20.010;2023-09-30T19:57:16;17.20;99.90
51175;DHT22;37240;50.104;20.010;2023-09-30T20:02:17;17.20;99.90
51175;DHT22;37240;50.104;20.010;2023-09-30T20:07:17;17.10;99.90
51175;DHT22;37240;50.104;20.010;2023-09-30T20:12:18;17.10;99.90
51175;DHT22;37240;50.104;20.010;2023-09-30T20:17:18;17.00;99.90
51175;DHT22;37240;50.104;20.010;2023-09-30T20:22:19;16.90;99.90
51175;DHT22;37240;50.104;20.010;2023-09-30T20:27:19;16.90;99.90
51175;DHT22;37240;50.104;20.010;2023-09-30T20:32:20;16.80;99.90
51175;DHT22;37240;50.104;20.010;2023-09-30T20:37:20;16.80;99.90
51175;DHT22;37240;50.104;20.010;2023-09-30T20:42:21;16.80;99.90
51175;DHT22;37240;50.104;20.010;2023-09-30T20:47:22;16.70;99.90
51175;DHT22;37240;50.104;20.010;2023-09-30T20:52:22;16.70;99.90
51175;DHT22;37240;50.104;20.010;2023-09-30T20:57:23;16.70;99.90
51175;DHT22;37240;50.104;20.010;2023-09-30T21:02:23;16.60;99.90
51175;DHT22;37240;50.104;20.010;2023-09-30T21:07:24;16.60;99.90
51175;DHT22;37240;50.104;20.010;2023-09-30T21:12:25;16.50;99.90
51175;DHT22;37240;50.104;20.010;2023-09-30T21:17:25;16.50;99.90
51175;DHT22;37240;50.104;20.010;2023-09-30T21:22:26;16.50;99.90
51175;DHT22;37240;50.104;20.010;2023-09-30T21:27:26;16.40;99.90
51175;DHT22;37240;50.104;20.010;2023-09-30T21:32:27;16.40;99.90
51175;DHT22;37240;50.104;20.010;2023-09-30T21:37:27;16.20;99.90
51175;DHT22;37240;50.104;20.010;2023-09-30T21:42:28;16.20;99.90
51175;DHT22;37240;50.104;20.010;2023-09-30T21:47:28;16.10;99.90
51175;DHT22;37240;50.104;20.010;2023-09-30T21:52:29;16.00;99.90
51175;DHT22;37240;50.104;20.010;2023-09-30T21:57:29;16.00;99.90
51175;DHT22;37240;50.104;20.010;2023-09-30T22:02:30;16.00;99.90
51175;DHT22;37240;50.104;20.010;2023-09-30T22:07:30;16.10;99.90
51175;DHT22;37240;50.104;20.010;2023-09-30T22:12:31;16.00;99.90
51175;DHT22;37240;50.104;20.010;2023-09-30T22:17:31;16.00;99.90
51175;DHT22;37240;50.104;20.010;2023-09-30T22:22:32;15.90;99.90
51175;DHT22;37240;50.104;20.010;2023-09-30T22:27:32;15.90;99.90
51175;DHT22;37240;50.104;20.010;2023-09-30T22:32:33;15.80;99.90
51175;DHT22;37240;50.104;20.010;2023-09-30T22:37:34;15.80;99.90
51175;DHT22;37240;50.104;20.010;2023-09-30T22:42:35;15.80;99.90
51175;DHT22;37240;50.104;20.010;2023-09-30T22:52:44;15.60;99.90
51175;DHT22;37240;50.104;20.010;2023-09-30T22:57:46;15.50;99.90
51175;DHT22;37240;50.104;20.010;2023-09-30T23:02:47;15.40;99.90
51175;DHT22;37240;50.104;20.010;2023-09-30T23:07:48;15.40;99.90
51175;DHT22;37240;50.104;20.010;2023-09-30T23:12:48;15.30;99.90
51175;DHT22;37240;50.104;20.010;2023-09-30T23:17:49;15.30;99.90
51175;DHT22;37240;50.104;20.010;2023-09-30T23:22:51;15.20;99.90
51175;DHT22;37240;50.104;20.010;2023-09-30T23:27:53;15.20;99.90
51175;DHT22;37240;50.104;20.010;2023-09-30T23:32:55;15.20;99.90
51175;DHT22;37240;50.104;20.010;2023-09-30T23:37:56;15.10;99.90
51175;DHT22;37240;50.104;20.010;2023-09-30T23:42:57;15.10;99.90
51175;DHT22;37240;50.104;20.010;2023-09-30T23:47:57;15.10;99.90
51175;DHT22;37240;50.104;20.010;2023-09-30T23:52:58;15.00;99.90
51175;DHT22;37240;50.104;20.010;2023-09-30T23:57:58;15.00;99.90
